createdAt,value
2022-08-07T00:02:36.859Z,15.95
2022-08-07T00:04:57.112Z,15.92
2022-08-07T00:07:23.630Z,15.92
2022-08-07T00:10:11.105Z,15.86
2022-08-07T00:12:57.601Z,15.81
2022-08-07T00:15:38.028Z,15.81
2022-08-07T00:18:19.658Z,15.75
2022-08-07T00:20:47.676Z,15.77
2022-08-07T00:23:14.873Z,15.72
2022-08-07T00:25:43.534Z,15.74
2022-08-07T00:28:12.539Z,15.72
2022-08-07T00:30:42.135Z,15.68
2022-08-07T00:33:08.618Z,15.67
2022-08-07T00:35:36.580Z,15.63
2022-08-07T00:38:03.815Z,15.60
2022-08-07T00:40:36.605Z,15.57
2022-08-07T00:43:09.725Z,15.54
2022-08-07T00:45:37.055Z,15.52
2022-08-07T00:48:07.838Z,15.54
2022-08-07T00:50:46.587Z,15.56
2022-08-07T00:53:18.607Z,15.60
2022-08-07T00:56:02.272Z,15.56
2022-08-07T00:58:41.054Z,15.48
2022-08-07T01:01:10.568Z,15.60
2022-08-07T01:03:55.332Z,15.58
2022-08-07T01:06:23.680Z,15.53
2022-08-07T01:08:53.398Z,15.47
2022-08-07T01:12:09.810Z,15.44
2022-08-07T01:14:09.214Z,15.45
2022-08-07T01:16:36.719Z,15.46
2022-08-07T01:19:04.948Z,15.37
2022-08-07T01:21:46.593Z,15.37
2022-08-07T01:24:14.557Z,15.36
2022-08-07T01:26:52.013Z,15.38
2022-08-07T01:29:20.260Z,15.40
2022-08-07T01:31:49.321Z,15.33
2022-08-07T01:34:18.652Z,15.27
2022-08-07T01:36:52.671Z,15.30
2022-08-07T01:39:41.444Z,15.24
2022-08-07T01:42:38.292Z,15.23
2022-08-07T01:45:01.224Z,15.20
2022-08-07T01:48:20.999Z,15.19
2022-08-07T01:50:14.411Z,15.14
2022-08-07T01:52:49.698Z,15.12
2022-08-07T01:55:42.587Z,15.12
2022-08-07T01:58:29.642Z,15.13
2022-08-07T02:01:09.985Z,15.14
2022-08-07T02:03:59.946Z,15.14
2022-08-07T02:06:32.214Z,15.08
2022-08-07T02:09:03.799Z,15.03
2022-08-07T02:12:03.482Z,15.02
2022-08-07T02:14:40.321Z,15.01
2022-08-07T02:17:07.358Z,14.99
2022-08-07T02:20:07.751Z,14.98
2022-08-07T02:22:25.716Z,14.89
2022-08-07T02:24:54.714Z,14.84
2022-08-07T02:27:23.458Z,14.75
2022-08-07T02:29:54.598Z,14.71
2022-08-07T02:32:23.155Z,14.70
2022-08-07T02:34:51.483Z,14.73
2022-08-07T02:37:19.014Z,14.70
2022-08-07T02:40:02.193Z,14.70
2022-08-07T02:42:34.231Z,14.75
2022-08-07T02:45:07.289Z,14.72
2022-08-07T02:47:49.790Z,14.68
2022-08-07T02:50:16.575Z,14.71
2022-08-07T02:52:53.129Z,14.73
2022-08-07T02:55:28.608Z,14.65
2022-08-07T02:58:12.217Z,14.66
2022-08-07T03:00:40.804Z,14.66
2022-08-07T03:03:20.972Z,14.71
2022-08-07T03:05:51.261Z,14.65
2022-08-07T03:08:26.985Z,14.60
2022-08-07T03:10:57.068Z,14.64
2022-08-07T03:13:23.790Z,14.56
2022-08-07T03:15:58.216Z,14.58
2022-08-07T03:18:34.301Z,14.50
2022-08-07T03:21:04.506Z,14.58
2022-08-07T03:23:33.904Z,14.63
2022-08-07T03:26:21.242Z,14.50
2022-08-07T03:28:50.290Z,14.49
2022-08-07T03:31:24.569Z,14.47
2022-08-07T03:34:18.288Z,14.51
2022-08-07T03:36:48.713Z,14.53
2022-08-07T03:39:16.058Z,14.59
2022-08-07T03:41:50.691Z,14.44
2022-08-07T03:44:21.805Z,14.39
2022-08-07T03:47:13.708Z,14.40
2022-08-07T03:49:42.482Z,14.38
2022-08-07T03:52:22.622Z,14.34
2022-08-07T03:54:55.013Z,14.40
2022-08-07T03:58:35.019Z,14.39
2022-08-07T04:00:12.732Z,14.42
2022-08-07T04:02:43.088Z,14.50
2022-08-07T04:05:14.075Z,14.59
2022-08-07T04:07:46.208Z,14.63
2022-08-07T04:10:15.526Z,14.71
2022-08-07T04:12:46.022Z,14.74
2022-08-07T04:15:13.829Z,14.73
2022-08-07T04:18:57.491Z,14.67
2022-08-07T04:20:29.538Z,14.65
2022-08-07T04:23:01.800Z,14.74
2022-08-07T04:25:29.173Z,14.81
2022-08-07T04:28:00.657Z,14.94
2022-08-07T04:30:44.284Z,15.05
2022-08-07T04:33:15.724Z,15.14
2022-08-07T04:35:50.545Z,15.23
2022-08-07T04:38:17.863Z,15.21
2022-08-07T04:40:52.503Z,15.35
2022-08-07T04:44:12.689Z,15.42
2022-08-07T04:46:34.523Z,15.54
2022-08-07T04:49:24.789Z,15.61
2022-08-07T04:52:19.853Z,15.67
2022-08-07T04:55:02.109Z,15.67
2022-08-07T04:58:13.817Z,15.84
2022-08-07T05:00:59.496Z,15.93
2022-08-07T05:04:07.764Z,15.98
2022-08-07T05:06:43.600Z,16.17
2022-08-07T05:09:45.346Z,16.28
2022-08-07T05:12:27.334Z,16.32
2022-08-07T05:15:21.622Z,16.46
2022-08-07T05:17:57.732Z,16.58
2022-08-07T05:20:27.491Z,16.63
2022-08-07T05:22:57.180Z,16.78
2022-08-07T05:25:25.584Z,16.90
2022-08-07T05:28:20.397Z,16.99
2022-08-07T05:30:49.881Z,17.07
2022-08-07T05:33:20.806Z,17.17
2022-08-07T05:35:49.730Z,17.24
2022-08-07T05:39:01.046Z,17.30
2022-08-07T05:41:05.521Z,17.41
2022-08-07T05:43:49.990Z,17.51
2022-08-07T05:46:27.037Z,17.53
2022-08-07T05:48:58.303Z,17.49
2022-08-07T05:51:25.776Z,17.59
2022-08-07T05:54:09.726Z,17.71
2022-08-07T05:56:47.025Z,17.95
2022-08-07T05:59:19.429Z,18.09
2022-08-07T06:01:48.551Z,18.32
2022-08-07T06:04:17.542Z,18.61
2022-08-07T06:06:46.380Z,18.92
2022-08-07T06:09:15.492Z,19.22
2022-08-07T06:11:42.473Z,19.40
2022-08-07T06:14:12.113Z,19.44
2022-08-07T06:16:50.408Z,19.66
2022-08-07T06:19:48.031Z,19.95
2022-08-07T06:22:15.281Z,20.10
2022-08-07T06:24:57.750Z,20.21
2022-08-07T06:27:44.051Z,20.36
2022-08-07T06:30:24.220Z,20.51
2022-08-07T06:32:59.074Z,20.60
2022-08-07T06:35:25.530Z,20.72
2022-08-07T06:38:08.311Z,20.80
2022-08-07T06:40:50.090Z,20.84
2022-08-07T06:43:21.379Z,20.94
2022-08-07T06:45:49.376Z,21.05
2022-08-07T06:48:15.969Z,21.24
2022-08-07T06:50:51.725Z,21.37
2022-08-07T06:55:29.757Z,21.54
2022-08-07T06:56:15.261Z,21.64
2022-08-07T07:00:13.121Z,21.75
2022-08-07T07:01:33.263Z,21.94
2022-08-07T07:04:28.514Z,22.02
2022-08-07T07:07:01.348Z,22.10
2022-08-07T07:09:31.123Z,22.18
2022-08-07T07:12:16.676Z,22.26
2022-08-07T07:15:03.730Z,22.12
2022-08-07T07:17:38.831Z,22.15
2022-08-07T07:20:28.009Z,22.46
2022-08-07T07:24:06.250Z,22.74
2022-08-07T07:26:35.731Z,22.93
2022-08-07T07:29:22.755Z,23.01
2022-08-07T07:31:44.220Z,23.19
2022-08-07T07:34:30.609Z,23.36
2022-08-07T07:37:05.605Z,23.71
2022-08-07T07:39:54.278Z,23.92
2022-08-07T07:42:32.570Z,24.17
2022-08-07T07:45:01.784Z,24.30
2022-08-07T07:47:29.259Z,24.39
2022-08-07T07:50:36.040Z,24.44
2022-08-07T07:52:46.992Z,24.32
2022-08-07T07:55:14.553Z,23.82
2022-08-07T07:57:52.477Z,24.07
2022-08-07T08:00:28.946Z,24.13
2022-08-07T08:03:01.270Z,24.27
2022-08-07T08:05:43.203Z,24.45
2022-08-07T08:08:34.720Z,24.67
2022-08-07T08:11:04.692Z,24.76
2022-08-07T08:13:33.188Z,24.24
2022-08-07T08:16:03.713Z,24.04
2022-08-07T08:18:30.981Z,23.85
2022-08-07T08:21:01.195Z,23.99
2022-08-07T08:23:49.363Z,23.92
2022-08-07T08:26:35.821Z,24.10
2022-08-07T08:29:03.596Z,24.36
2022-08-07T08:31:59.328Z,24.48
2022-08-07T08:34:26.959Z,24.62
2022-08-07T08:36:57.657Z,24.50
2022-08-07T08:39:25.582Z,24.34
2022-08-07T08:42:29.989Z,24.12
2022-08-07T08:45:13.490Z,24.38
2022-08-07T08:48:04.853Z,24.44
2022-08-07T08:50:39.536Z,24.41
2022-08-07T08:53:15.209Z,24.38
2022-08-07T08:55:53.478Z,24.70
2022-08-07T08:58:32.750Z,25.11
2022-08-07T09:01:15.774Z,25.34
2022-08-07T09:03:56.699Z,25.46
2022-08-07T09:07:02.251Z,25.21
2022-08-07T09:09:41.105Z,25.04
2022-08-07T09:12:53.034Z,24.77
2022-08-07T09:16:22.758Z,24.49
2022-08-07T09:18:58.455Z,24.94
2022-08-07T09:21:34.470Z,25.44
2022-08-07T09:24:54.069Z,25.75
2022-08-07T09:27:24.828Z,25.71
2022-08-07T09:30:06.430Z,25.75
2022-08-07T09:32:46.671Z,25.82
2022-08-07T09:36:04.243Z,25.98
2022-08-07T09:38:17.925Z,26.32
2022-08-07T09:41:06.243Z,26.62
2022-08-07T09:44:10.237Z,26.96
2022-08-07T09:47:50.260Z,27.19
2022-08-07T09:50:01.530Z,27.38
2022-08-07T09:52:41.068Z,26.99
2022-08-07T09:55:17.039Z,27.11
2022-08-07T09:58:32.426Z,27.46
2022-08-07T10:01:08.449Z,27.44
2022-08-07T10:04:28.261Z,27.17
2022-08-07T10:07:24.487Z,27.56
2022-08-07T10:10:23.063Z,27.82
2022-08-07T10:13:29.858Z,27.85
2022-08-07T10:16:10.184Z,27.68
2022-08-07T10:18:49.329Z,27.32
2022-08-07T10:22:12.388Z,27.48
2022-08-07T10:25:13.553Z,27.28
2022-08-07T10:28:08.013Z,27.30
2022-08-07T10:30:54.068Z,27.25
2022-08-07T10:34:06.652Z,27.91
2022-08-07T10:36:48.558Z,28.00
2022-08-07T10:39:25.526Z,28.02
2022-08-07T10:42:31.360Z,26.98
2022-08-07T10:45:45.248Z,26.49
2022-08-07T10:48:12.418Z,26.26
2022-08-07T10:50:50.238Z,25.91
2022-08-07T10:53:27.972Z,26.34
2022-08-07T10:56:30.925Z,26.54
2022-08-07T10:59:21.423Z,26.87
2022-08-07T11:02:11.856Z,27.11
2022-08-07T11:04:57.602Z,26.80
2022-08-07T11:07:59.535Z,26.41
2022-08-07T11:10:39.995Z,26.10
2022-08-07T11:14:46.026Z,26.65
2022-08-07T11:16:36.952Z,27.06
2022-08-07T11:19:10.229Z,27.09
2022-08-07T11:21:40.837Z,26.84
2022-08-07T11:24:20.605Z,26.61
2022-08-07T11:26:54.205Z,27.07
2022-08-07T11:29:41.926Z,27.69
2022-08-07T11:32:25.992Z,28.57
2022-08-07T11:34:58.631Z,28.42
2022-08-07T11:38:10.221Z,28.59
2022-08-07T11:40:49.922Z,28.20
2022-08-07T11:43:29.434Z,27.81
2022-08-07T11:46:36.613Z,27.39
2022-08-07T11:50:18.558Z,27.48
2022-08-07T11:52:42.795Z,27.88
2022-08-07T11:55:13.078Z,28.56
2022-08-07T11:58:33.121Z,28.90
2022-08-07T12:01:22.049Z,29.44
2022-08-07T12:04:01.098Z,29.64
2022-08-07T12:06:56.246Z,28.28
2022-08-07T12:09:46.114Z,26.59
2022-08-07T12:12:18.985Z,26.51
2022-08-07T12:14:56.117Z,26.44
2022-08-07T12:17:33.462Z,26.65
2022-08-07T12:20:10.518Z,27.16
2022-08-07T12:23:21.451Z,27.67
2022-08-07T12:26:23.461Z,28.17
2022-08-07T12:29:06.225Z,28.30
2022-08-07T12:32:02.436Z,27.56
2022-08-07T12:34:28.252Z,27.37
2022-08-07T12:36:56.089Z,27.29
2022-08-07T12:39:43.707Z,27.14
2022-08-07T12:42:13.013Z,27.29
2022-08-07T12:44:42.921Z,27.57
2022-08-07T12:47:30.792Z,27.91
2022-08-07T12:50:04.919Z,27.81
2022-08-07T12:52:36.828Z,27.76
2022-08-07T12:55:21.628Z,27.55
2022-08-07T12:58:08.033Z,27.18
2022-08-07T13:01:00.837Z,27.39
2022-08-07T13:04:31.667Z,28.02
2022-08-07T13:08:14.316Z,28.73
2022-08-07T13:10:51.799Z,28.43
2022-08-07T13:13:48.579Z,28.28
2022-08-07T13:16:37.612Z,28.25
2022-08-07T13:19:35.012Z,28.09
2022-08-07T13:22:31.149Z,27.63
2022-08-07T13:25:09.563Z,27.83
2022-08-07T13:28:11.705Z,28.06
2022-08-07T13:30:48.690Z,27.48
2022-08-07T13:34:29.916Z,26.32
2022-08-07T13:36:22.139Z,27.23
2022-08-07T13:39:49.361Z,27.86
2022-08-07T13:42:06.305Z,28.00
2022-08-07T13:44:34.561Z,27.92
2022-08-07T13:47:09.472Z,27.77
2022-08-07T13:50:32.542Z,28.28
2022-08-07T13:52:36.284Z,29.11
2022-08-07T13:55:19.375Z,29.10
2022-08-07T13:58:27.589Z,28.57
2022-08-07T14:00:59.395Z,28.81
2022-08-07T14:04:06.628Z,29.51
2022-08-07T14:06:32.189Z,29.44
2022-08-07T14:08:59.386Z,29.51
2022-08-07T14:11:53.748Z,29.09
2022-08-07T14:14:20.676Z,29.26
2022-08-07T14:16:50.078Z,29.46
2022-08-07T14:20:40.630Z,29.80
2022-08-07T14:22:34.545Z,29.62
2022-08-07T14:25:08.234Z,29.87
2022-08-07T14:28:10.309Z,30.19
2022-08-07T14:33:15.777Z,30.40
2022-08-07T14:35:55.749Z,30.16
2022-08-07T14:38:30.667Z,29.64
2022-08-07T14:41:14.733Z,29.41
2022-08-07T14:43:55.257Z,29.27
2022-08-07T14:46:31.278Z,29.03
2022-08-07T14:48:59.248Z,29.12
2022-08-07T14:52:04.591Z,29.79
2022-08-07T14:57:20.481Z,30.63
2022-08-07T15:02:39.253Z,30.88
2022-08-07T15:05:20.269Z,31.04
2022-08-07T15:07:51.006Z,31.11
2022-08-07T15:10:26.838Z,31.12
2022-08-07T15:12:58.683Z,31.38
2022-08-07T15:15:40.709Z,31.35
2022-08-07T15:18:33.905Z,31.03
2022-08-07T15:25:14.408Z,30.07
2022-08-07T15:26:44.702Z,29.52
2022-08-07T15:30:06.636Z,29.58
2022-08-07T15:32:05.001Z,29.37
2022-08-07T15:34:50.686Z,29.25
2022-08-07T15:38:04.566Z,28.68
2022-08-07T15:43:33.537Z,29.19
2022-08-07T15:46:04.510Z,29.23
2022-08-07T15:48:55.236Z,29.23
2022-08-07T15:54:21.486Z,30.18
2022-08-07T15:56:49.507Z,30.44
2022-08-07T15:59:17.319Z,30.66
2022-08-07T16:02:01.738Z,30.41
2022-08-07T16:04:31.478Z,29.78
2022-08-07T16:07:04.767Z,29.61
2022-08-07T16:09:51.968Z,29.59
2022-08-07T16:13:01.184Z,29.73
2022-08-07T16:15:58.059Z,29.87
2022-08-07T16:18:51.566Z,29.61
2022-08-07T16:22:04.079Z,28.38
2022-08-07T16:24:52.328Z,28.02
2022-08-07T16:27:25.369Z,27.81
2022-08-07T16:30:30.198Z,27.72
2022-08-07T16:32:59.148Z,27.71
2022-08-07T16:36:03.686Z,27.51
2022-08-07T16:39:01.100Z,27.51
2022-08-07T16:41:58.877Z,27.45
2022-08-07T16:45:14.968Z,28.00
2022-08-07T16:47:57.177Z,27.63
2022-08-07T16:51:20.589Z,27.63
2022-08-07T16:54:08.865Z,27.91
2022-08-07T16:56:54.763Z,28.10
2022-08-07T16:59:46.585Z,27.92
2022-08-07T17:02:55.514Z,27.79
2022-08-07T17:06:19.134Z,27.75
2022-08-07T17:09:09.837Z,27.86
2022-08-07T17:12:01.539Z,27.72
2022-08-07T17:14:43.900Z,27.64
2022-08-07T17:17:23.539Z,27.55
2022-08-07T17:20:02.735Z,27.18
2022-08-07T17:22:48.477Z,26.88
2022-08-07T17:25:19.255Z,26.34
2022-08-07T17:27:53.318Z,25.95
2022-08-07T17:30:26.701Z,25.84
2022-08-07T17:34:09.614Z,25.31
2022-08-07T17:36:03.009Z,25.11
2022-08-07T17:38:36.833Z,24.77
2022-08-07T17:42:03.475Z,24.50
2022-08-07T17:44:45.254Z,24.75
2022-08-07T17:47:43.328Z,24.66
2022-08-07T17:50:20.948Z,24.75
2022-08-07T17:53:58.261Z,24.76
2022-08-07T17:56:06.640Z,24.34
2022-08-07T17:58:56.792Z,24.31
2022-08-07T18:01:48.543Z,24.35
2022-08-07T18:04:34.568Z,24.12
2022-08-07T18:07:20.776Z,24.07
2022-08-07T18:10:06.503Z,24.11
2022-08-07T18:13:09.914Z,23.95
2022-08-07T18:15:55.800Z,24.07
2022-08-07T18:18:47.500Z,23.79
2022-08-07T18:21:53.547Z,23.92
2022-08-07T18:24:28.419Z,23.89
2022-08-07T18:27:38.828Z,23.86
2022-08-07T18:30:31.544Z,23.94
2022-08-07T18:33:24.881Z,23.76
2022-08-07T18:36:33.036Z,23.66
2022-08-07T18:40:08.819Z,23.42
2022-08-07T18:42:34.936Z,23.40
2022-08-07T18:45:42.762Z,23.31
2022-08-07T18:48:08.908Z,23.38
2022-08-07T18:50:47.544Z,23.30
2022-08-07T18:53:36.502Z,23.31
2022-08-07T18:56:31.881Z,23.26
2022-08-07T18:59:47.135Z,23.23
2022-08-07T19:02:36.352Z,23.14
2022-08-07T19:05:22.783Z,23.17
2022-08-07T19:07:57.492Z,23.06
2022-08-07T19:10:31.581Z,22.93
2022-08-07T19:13:10.277Z,22.87
2022-08-07T19:16:05.300Z,22.72
2022-08-07T19:18:49.408Z,22.76
2022-08-07T19:21:48.065Z,22.72
2022-08-07T19:24:48.768Z,22.73
2022-08-07T19:28:29.492Z,22.69
2022-08-07T19:31:03.754Z,22.59
2022-08-07T19:33:10.246Z,22.49
2022-08-07T19:35:44.133Z,22.30
2022-08-07T19:38:17.054Z,22.32
2022-08-07T19:40:50.437Z,22.23
2022-08-07T19:43:44.943Z,22.11
2022-08-07T19:46:12.397Z,22.08
2022-08-07T19:48:53.545Z,22.07
2022-08-07T19:51:24.260Z,21.93
2022-08-07T19:54:32.246Z,21.97
2022-08-07T19:58:00.427Z,21.96
2022-08-07T19:59:48.548Z,21.91
2022-08-07T20:02:23.383Z,21.86
2022-08-07T20:04:56.120Z,21.81
2022-08-07T20:07:46.554Z,21.79
2022-08-07T20:10:35.950Z,21.66
2022-08-07T20:13:15.860Z,21.55
2022-08-07T20:15:52.195Z,21.42
2022-08-07T20:18:20.605Z,21.43
2022-08-07T20:21:01.122Z,21.53
2022-08-07T20:23:43.153Z,21.34
2022-08-07T20:26:20.547Z,21.22
2022-08-07T20:28:59.345Z,21.18
2022-08-07T20:31:26.322Z,21.15
2022-08-07T20:33:56.621Z,21.05
2022-08-07T20:36:26.182Z,21.05
2022-08-07T20:39:00.515Z,20.98
2022-08-07T20:41:34.109Z,20.69
2022-08-07T20:44:05.262Z,20.66
2022-08-07T20:46:43.799Z,20.74
2022-08-07T20:49:59.424Z,20.71
2022-08-07T20:51:59.265Z,20.62
2022-08-07T20:54:29.281Z,20.70
2022-08-07T20:57:00.650Z,20.62
2022-08-07T21:00:08.179Z,20.51
2022-08-07T21:02:39.066Z,20.62
2022-08-07T21:05:16.177Z,20.55
2022-08-07T21:07:49.747Z,20.58
2022-08-07T21:10:29.497Z,20.49
2022-08-07T21:12:59.761Z,20.47
2022-08-07T21:15:58.004Z,20.40
2022-08-07T21:18:28.154Z,20.44
2022-08-07T21:20:57.096Z,20.28
2022-08-07T21:23:49.474Z,20.26
2022-08-07T21:26:42.938Z,20.29
2022-08-07T21:29:22.983Z,20.24
2022-08-07T21:32:47.010Z,20.21
2022-08-07T21:36:04.023Z,20.06
2022-08-07T21:38:17.057Z,20.02
2022-08-07T21:41:10.832Z,19.99
2022-08-07T21:43:55.907Z,19.88
2022-08-07T21:46:45.335Z,19.87
2022-08-07T21:49:17.728Z,19.86
2022-08-07T21:52:01.044Z,19.75
2022-08-07T21:54:33.658Z,19.73
2022-08-07T21:57:15.907Z,19.57
2022-08-07T22:00:23.017Z,19.66
2022-08-07T22:03:16.582Z,19.61
2022-08-07T22:05:50.041Z,19.52
2022-08-07T22:08:21.003Z,19.51
2022-08-07T22:10:51.408Z,19.52
2022-08-07T22:13:24.522Z,19.50
2022-08-07T22:16:42.410Z,19.56
2022-08-07T22:19:30.025Z,19.54
2022-08-07T22:22:21.062Z,19.55
2022-08-07T22:24:54.833Z,19.42
2022-08-07T22:27:34.135Z,19.52
2022-08-07T22:30:18.963Z,19.31
2022-08-07T22:32:45.331Z,19.37
2022-08-07T22:35:12.339Z,19.41
2022-08-07T22:38:04.151Z,19.33
2022-08-07T22:40:38.413Z,19.43
2022-08-07T22:43:34.215Z,19.36
2022-08-07T22:46:47.091Z,19.48
2022-08-07T22:49:42.801Z,19.48
2022-08-07T22:52:37.306Z,19.33
2022-08-07T22:55:39.035Z,19.31
2022-08-07T22:58:42.131Z,19.38
2022-08-07T23:01:22.473Z,19.40
2022-08-07T23:04:17.059Z,19.36
2022-08-07T23:07:03.569Z,19.22
2022-08-07T23:10:37.870Z,19.06
2022-08-07T23:13:29.538Z,18.95
2022-08-07T23:16:48.587Z,18.88
2022-08-07T23:19:57.991Z,18.90
2022-08-07T23:22:39.894Z,19.04
2022-08-07T23:25:48.411Z,18.96
2022-08-07T23:28:54.669Z,18.99
2022-08-07T23:34:23.842Z,18.95
2022-08-07T23:35:04.514Z,18.56
2022-08-07T23:38:03.945Z,18.70
2022-08-07T23:40:34.733Z,18.64
2022-08-07T23:43:20.747Z,18.48
2022-08-07T23:46:10.589Z,18.55
2022-08-07T23:48:52.256Z,18.69
2022-08-07T23:53:00.711Z,18.68
2022-08-07T23:54:20.020Z,18.64
2022-08-07T23:57:24.508Z,18.60
